sensor_id;sensor_type;location;lat;lon;timestamp;P1;durP1;ratioP1;P2;durP2;ratioP2
5042;SDS011;2540;50.928;6.856;2023-05-15T00:00:39;13.30;;;10.00;;
5042;SDS011;2540;50.928;6.856;2023-05-15T00:03:05;20.43;;;8.50;;
5042;SDS011;2540;50.928;6.856;2023-05-15T00:05:31;17.67;;;9.63;;
5042;SDS011;2540;50.928;6.856;2023-05-15T00:07:56;16.13;;;9.80;;
5042;SDS011;2540;50.928;6.856;2023-05-15T00:10:22;15.40;;;9.63;;
5042;SDS011;2540;50.928;6.856;2023-05-15T00:12:47;17.60;;;10.50;;
5042;SDS011;2540;50.928;6.856;2023-05-15T00:15:13;14.93;;;9.60;;
5042;SDS011;2540;50.928;6.856;2023-05-15T00:17:38;19.00;;;10.10;;
5042;SDS011;2540;50.928;6.856;2023-05-15T00:20:04;19.53;;;11.13;;
5042;SDS011;2540;50.928;6.856;2023-05-15T00:22:31;19.00;;;10.97;;
5042;SDS011;2540;50.928;6.856;2023-05-15T00:24:57;14.53;;;10.80;;
5042;SDS011;2540;50.928;6.856;2023-05-15T00:27:23;22.30;;;12.33;;
5042;SDS011;2540;50.928;6.856;2023-05-15T00:29:49;21.30;;;11.37;;
5042;SDS011;2540;50.928;6.856;2023-05-15T00:32:14;22.17;;;12.00;;
5042;SDS011;2540;50.928;6.856;2023-05-15T00:34:39;27.73;;;13.90;;
5042;SDS011;2540;50.928;6.856;2023-05-15T00:37:05;22.70;;;13.70;;
5042;SDS011;2540;50.928;6.856;2023-05-15T00:39:30;21.13;;;12.73;;
5042;SDS011;2540;50.928;6.856;2023-05-15T00:41:56;20.63;;;12.83;;
5042;SDS011;2540;50.928;6.856;2023-05-15T00:44:21;29.80;;;12.70;;
5042;SDS011;2540;50.928;6.856;2023-05-15T00:46:47;24.43;;;13.60;;
5042;SDS011;2540;50.928;6.856;2023-05-15T00:49:13;21.90;;;13.73;;
5042;SDS011;2540;50.928;6.856;2023-05-15T00:51:40;25.47;;;14.30;;
5042;SDS011;2540;50.928;6.856;2023-05-15T00:54:06;20.27;;;13.20;;
5042;SDS011;2540;50.928;6.856;2023-05-15T00:56:32;21.70;;;13.20;;
5042;SDS011;2540;50.928;6.856;2023-05-15T00:58:58;26.20;;;13.83;;
5042;SDS011;2540;50.928;6.856;2023-05-15T01:01:23;24.57;;;14.10;;
5042;SDS011;2540;50.928;6.856;2023-05-15T01:03:49;23.80;;;15.07;;
5042;SDS011;2540;50.928;6.856;2023-05-15T01:06:15;25.77;;;14.33;;
5042;SDS011;2540;50.928;6.856;2023-05-15T01:11:12;34.00;;;15.70;;
5042;SDS011;2540;50.928;6.856;2023-05-15T01:13:38;29.43;;;15.60;;
5042;SDS011;2540;50.928;6.856;2023-05-15T01:16:04;23.03;;;14.50;;
5042;SDS011;2540;50.928;6.856;2023-05-15T01:18:30;28.60;;;16.17;;
5042;SDS011;2540;50.928;6.856;2023-05-15T01:32:08;29.17;;;17.50;;
5042;SDS011;2540;50.928;6.856;2023-05-15T01:37:07;35.77;;;19.40;;
5042;SDS011;2540;50.928;6.856;2023-05-15T01:39:35;41.80;;;20.27;;
5042;SDS011;2540;50.928;6.856;2023-05-15T01:42:05;30.43;;;19.03;;
5042;SDS011;2540;50.928;6.856;2023-05-15T01:44:35;42.00;;;19.47;;
5042;SDS011;2540;50.928;6.856;2023-05-15T01:47:04;37.00;;;19.47;;
5042;SDS011;2540;50.928;6.856;2023-05-15T01:49:33;51.10;;;24.37;;
5042;SDS011;2540;50.928;6.856;2023-05-15T01:52:10;45.50;;;21.27;;
5042;SDS011;2540;50.928;6.856;2023-05-15T01:54:38;49.20;;;23.13;;
5042;SDS011;2540;50.928;6.856;2023-05-15T01:57:04;45.57;;;22.27;;
5042;SDS011;2540;50.928;6.856;2023-05-15T01:59:31;45.10;;;24.47;;
5042;SDS011;2540;50.928;6.856;2023-05-15T02:01:57;58.23;;;23.43;;
5042;SDS011;2540;50.928;6.856;2023-05-15T02:04:23;45.33;;;22.03;;
5042;SDS011;2540;50.928;6.856;2023-05-15T02:06:49;45.87;;;24.73;;
5042;SDS011;2540;50.928;6.856;2023-05-15T02:09:17;44.10;;;23.83;;
5042;SDS011;2540;50.928;6.856;2023-05-15T02:11:44;48.97;;;24.53;;
5042;SDS011;2540;50.928;6.856;2023-05-15T02:14:09;52.73;;;24.83;;
5042;SDS011;2540;50.928;6.856;2023-05-15T02:16:35;49.30;;;26.13;;
5042;SDS011;2540;50.928;6.856;2023-05-15T02:19:00;52.87;;;25.20;;
5042;SDS011;2540;50.928;6.856;2023-05-15T02:21:25;52.83;;;25.17;;
5042;SDS011;2540;50.928;6.856;2023-05-15T02:23:51;50.77;;;26.37;;
5042;SDS011;2540;50.928;6.856;2023-05-15T02:26:59;55.17;;;26.17;;
5042;SDS011;2540;50.928;6.856;2023-05-15T02:37:30;65.80;;;32.00;;
5042;SDS011;2540;50.928;6.856;2023-05-15T02:39:58;63.40;;;29.80;;
5042;SDS011;2540;50.928;6.856;2023-05-15T02:42:24;67.33;;;31.90;;
5042;SDS011;2540;50.928;6.856;2023-05-15T02:44:51;58.87;;;28.90;;
5042;SDS011;2540;50.928;6.856;2023-05-15T02:47:18;65.57;;;31.10;;
5042;SDS011;2540;50.928;6.856;2023-05-15T02:49:44;76.83;;;32.50;;
5042;SDS011;2540;50.928;6.856;2023-05-15T02:52:09;64.07;;;32.13;;
5042;SDS011;2540;50.928;6.856;2023-05-15T02:54:35;68.90;;;32.53;;
5042;SDS011;2540;50.928;6.856;2023-05-15T02:57:00;61.53;;;30.13;;
5042;SDS011;2540;50.928;6.856;2023-05-15T02:59:25;66.13;;;31.37;;
5042;SDS011;2540;50.928;6.856;2023-05-15T03:01:51;68.33;;;32.27;;
5042;SDS011;2540;50.928;6.856;2023-05-15T03:04:16;66.77;;;33.17;;
5042;SDS011;2540;50.928;6.856;2023-05-15T03:06:42;61.57;;;31.50;;
5042;SDS011;2540;50.928;6.856;2023-05-15T03:09:07;66.47;;;32.70;;
5042;SDS011;2540;50.928;6.856;2023-05-15T03:11:33;73.13;;;35.77;;
5042;SDS011;2540;50.928;6.856;2023-05-15T03:13:58;64.77;;;29.53;;
5042;SDS011;2540;50.928;6.856;2023-05-15T03:16:26;69.13;;;32.00;;
5042;SDS011;2540;50.928;6.856;2023-05-15T03:18:52;64.77;;;33.20;;
5042;SDS011;2540;50.928;6.856;2023-05-15T03:21:18;61.70;;;31.97;;
5042;SDS011;2540;50.928;6.856;2023-05-15T03:23:44;76.53;;;32.63;;
5042;SDS011;2540;50.928;6.856;2023-05-15T03:26:09;69.27;;;31.13;;
5042;SDS011;2540;50.928;6.856;2023-05-15T03:28:36;67.03;;;29.63;;
5042;SDS011;2540;50.928;6.856;2023-05-15T03:31:01;67.60;;;31.30;;
5042;SDS011;2540;50.928;6.856;2023-05-15T03:33:28;62.77;;;30.27;;
5042;SDS011;2540;50.928;6.856;2023-05-15T03:35:54;62.53;;;31.50;;
5042;SDS011;2540;50.928;6.856;2023-05-15T03:38:20;64.87;;;30.53;;
5042;SDS011;2540;50.928;6.856;2023-05-15T03:40:45;59.03;;;30.10;;
5042;SDS011;2540;50.928;6.856;2023-05-15T03:43:10;64.50;;;31.43;;
5042;SDS011;2540;50.928;6.856;2023-05-15T03:45:36;68.40;;;31.60;;
5042;SDS011;2540;50.928;6.856;2023-05-15T03:48:03;53.80;;;28.33;;
5042;SDS011;2540;50.928;6.856;2023-05-15T03:50:29;63.20;;;31.30;;
5042;SDS011;2540;50.928;6.856;2023-05-15T03:52:54;60.63;;;28.70;;
5042;SDS011;2540;50.928;6.856;2023-05-15T03:55:20;62.43;;;30.43;;
5042;SDS011;2540;50.928;6.856;2023-05-15T03:57:45;63.20;;;31.27;;
5042;SDS011;2540;50.928;6.856;2023-05-15T04:00:11;61.57;;;30.93;;
5042;SDS011;2540;50.928;6.856;2023-05-15T04:02:36;63.70;;;29.00;;
5042;SDS011;2540;50.928;6.856;2023-05-15T04:05:02;59.83;;;30.43;;
5042;SDS011;2540;50.928;6.856;2023-05-15T04:07:29;53.93;;;28.00;;
5042;SDS011;2540;50.928;6.856;2023-05-15T04:09:56;69.50;;;29.30;;
5042;SDS011;2540;50.928;6.856;2023-05-15T04:12:25;56.47;;;29.27;;
5042;SDS011;2540;50.928;6.856;2023-05-15T04:15:15;60.23;;;30.40;;
5042;SDS011;2540;50.928;6.856;2023-05-15T04:17:39;53.63;;;27.27;;
5042;SDS011;2540;50.928;6.856;2023-05-15T04:20:05;58.80;;;29.83;;
5042;SDS011;2540;50.928;6.856;2023-05-15T04:22:31;60.67;;;28.97;;
5042;SDS011;2540;50.928;6.856;2023-05-15T04:24:56;53.63;;;29.10;;
5042;SDS011;2540;50.928;6.856;2023-05-15T04:27:22;50.10;;;27.87;;
5042;SDS011;2540;50.928;6.856;2023-05-15T04:29:47;53.87;;;26.17;;
5042;SDS011;2540;50.928;6.856;2023-05-15T04:32:12;50.90;;;27.50;;
5042;SDS011;2540;50.928;6.856;2023-05-15T04:34:38;50.67;;;26.37;;
5042;SDS011;2540;50.928;6.856;2023-05-15T04:37:04;50.47;;;25.70;;
5042;SDS011;2540;50.928;6.856;2023-05-15T04:39:30;48.10;;;26.07;;
5042;SDS011;2540;50.928;6.856;2023-05-15T04:41:55;53.90;;;26.80;;
5042;SDS011;2540;50.928;6.856;2023-05-15T04:44:21;60.47;;;29.27;;
5042;SDS011;2540;50.928;6.856;2023-05-15T04:46:46;52.23;;;26.60;;
5042;SDS011;2540;50.928;6.856;2023-05-15T04:49:11;54.73;;;27.07;;
5042;SDS011;2540;50.928;6.856;2023-05-15T04:51:37;55.77;;;27.77;;
5042;SDS011;2540;50.928;6.856;2023-05-15T04:54:02;55.97;;;26.77;;
5042;SDS011;2540;50.928;6.856;2023-05-15T04:56:28;52.80;;;27.77;;
5042;SDS011;2540;50.928;6.856;2023-05-15T04:58:53;62.17;;;29.50;;
5042;SDS011;2540;50.928;6.856;2023-05-15T05:01:18;55.50;;;27.80;;
5042;SDS011;2540;50.928;6.856;2023-05-15T05:03:44;67.53;;;29.40;;
5042;SDS011;2540;50.928;6.856;2023-05-15T05:06:09;52.07;;;28.00;;
5042;SDS011;2540;50.928;6.856;2023-05-15T05:08:35;75.07;;;34.63;;
5042;SDS011;2540;50.928;6.856;2023-05-15T05:11:00;76.37;;;34.60;;
5042;SDS011;2540;50.928;6.856;2023-05-15T05:13:26;77.80;;;36.83;;
5042;SDS011;2540;50.928;6.856;2023-05-15T05:15:51;73.13;;;36.83;;
5042;SDS011;2540;50.928;6.856;2023-05-15T05:18:17;87.43;;;38.37;;
5042;SDS011;2540;50.928;6.856;2023-05-15T05:20:42;68.13;;;32.93;;
5042;SDS011;2540;50.928;6.856;2023-05-15T05:23:08;63.93;;;32.03;;
5042;SDS011;2540;50.928;6.856;2023-05-15T05:25:33;60.77;;;29.97;;
5042;SDS011;2540;50.928;6.856;2023-05-15T05:27:58;60.10;;;31.20;;
5042;SDS011;2540;50.928;6.856;2023-05-15T05:30:24;63.53;;;29.87;;
5042;SDS011;2540;50.928;6.856;2023-05-15T05:32:49;52.83;;;28.97;;
5042;SDS011;2540;50.928;6.856;2023-05-15T05:35:15;56.63;;;28.63;;
5042;SDS011;2540;50.928;6.856;2023-05-15T05:37:40;58.03;;;29.43;;
5042;SDS011;2540;50.928;6.856;2023-05-15T05:40:05;63.20;;;30.90;;
5042;SDS011;2540;50.928;6.856;2023-05-15T05:42:32;79.07;;;30.83;;
5042;SDS011;2540;50.928;6.856;2023-05-15T05:44:58;67.73;;;29.47;;
5042;SDS011;2540;50.928;6.856;2023-05-15T05:47:23;57.90;;;31.20;;
5042;SDS011;2540;50.928;6.856;2023-05-15T05:49:49;57.47;;;29.87;;
5042;SDS011;2540;50.928;6.856;2023-05-15T05:52:14;56.57;;;29.53;;
5042;SDS011;2540;50.928;6.856;2023-05-15T05:54:42;61.63;;;30.80;;
5042;SDS011;2540;50.928;6.856;2023-05-15T05:57:10;63.40;;;33.00;;
5042;SDS011;2540;50.928;6.856;2023-05-15T05:59:35;61.60;;;31.23;;
5042;SDS011;2540;50.928;6.856;2023-05-15T06:02:01;63.40;;;32.37;;
5042;SDS011;2540;50.928;6.856;2023-05-15T06:04:27;63.50;;;32.70;;
5042;SDS011;2540;50.928;6.856;2023-05-15T06:06:53;77.17;;;37.23;;
5042;SDS011;2540;50.928;6.856;2023-05-15T06:09:18;65.80;;;34.40;;
5042;SDS011;2540;50.928;6.856;2023-05-15T06:11:44;70.20;;;34.07;;
5042;SDS011;2540;50.928;6.856;2023-05-15T06:14:09;53.70;;;30.03;;
5042;SDS011;2540;50.928;6.856;2023-05-15T06:16:35;62.63;;;33.77;;
5042;SDS011;2540;50.928;6.856;2023-05-15T06:19:00;63.47;;;31.00;;
5042;SDS011;2540;50.928;6.856;2023-05-15T06:21:25;56.73;;;31.53;;
5042;SDS011;2540;50.928;6.856;2023-05-15T06:23:51;57.60;;;29.87;;
5042;SDS011;2540;50.928;6.856;2023-05-15T06:26:16;51.80;;;27.10;;
5042;SDS011;2540;50.928;6.856;2023-05-15T06:28:42;53.60;;;29.50;;
5042;SDS011;2540;50.928;6.856;2023-05-15T06:31:07;57.73;;;28.70;;
5042;SDS011;2540;50.928;6.856;2023-05-15T06:33:32;62.30;;;28.03;;
5042;SDS011;2540;50.928;6.856;2023-05-15T06:35:58;49.33;;;28.30;;
5042;SDS011;2540;50.928;6.856;2023-05-15T06:38:23;53.13;;;29.37;;
5042;SDS011;2540;50.928;6.856;2023-05-15T06:40:48;72.67;;;32.77;;
5042;SDS011;2540;50.928;6.856;2023-05-15T06:43:14;63.30;;;30.77;;
5042;SDS011;2540;50.928;6.856;2023-05-15T06:45:39;68.40;;;34.67;;
5042;SDS011;2540;50.928;6.856;2023-05-15T06:48:05;71.43;;;35.30;;
5042;SDS011;2540;50.928;6.856;2023-05-15T06:50:30;69.30;;;35.40;;
5042;SDS011;2540;50.928;6.856;2023-05-15T06:52:56;66.27;;;32.03;;
5042;SDS011;2540;50.928;6.856;2023-05-15T06:55:22;62.70;;;33.90;;
5042;SDS011;2540;50.928;6.856;2023-05-15T06:57:47;65.23;;;31.97;;
5042;SDS011;2540;50.928;6.856;2023-05-15T07:00:12;65.87;;;33.10;;
5042;SDS011;2540;50.928;6.856;2023-05-15T07:02:38;66.83;;;34.83;;
5042;SDS011;2540;50.928;6.856;2023-05-15T07:05:04;66.43;;;32.30;;
5042;SDS011;2540;50.928;6.856;2023-05-15T07:07:30;66.07;;;32.50;;
5042;SDS011;2540;50.928;6.856;2023-05-15T07:09:55;69.20;;;34.60;;
5042;SDS011;2540;50.928;6.856;2023-05-15T07:12:21;65.63;;;34.57;;
5042;SDS011;2540;50.928;6.856;2023-05-15T07:14:47;79.00;;;35.90;;
5042;SDS011;2540;50.928;6.856;2023-05-15T07:17:12;63.93;;;33.07;;
5042;SDS011;2540;50.928;6.856;2023-05-15T07:19:37;64.10;;;33.57;;
5042;SDS011;2540;50.928;6.856;2023-05-15T07:22:03;66.90;;;33.77;;
5042;SDS011;2540;50.928;6.856;2023-05-15T07:24:28;65.27;;;33.27;;
5042;SDS011;2540;50.928;6.856;2023-05-15T07:26:54;69.23;;;35.63;;
5042;SDS011;2540;50.928;6.856;2023-05-15T07:29:21;79.97;;;34.97;;
5042;SDS011;2540;50.928;6.856;2023-05-15T07:31:46;65.70;;;34.10;;
5042;SDS011;2540;50.928;6.856;2023-05-15T07:34:12;65.57;;;34.63;;
5042;SDS011;2540;50.928;6.856;2023-05-15T07:36:37;79.23;;;34.77;;
5042;SDS011;2540;50.928;6.856;2023-05-15T07:39:02;68.70;;;35.13;;
5042;SDS011;2540;50.928;6.856;2023-05-15T07:41:28;63.70;;;35.47;;
5042;SDS011;2540;50.928;6.856;2023-05-15T07:43:55;72.60;;;34.27;;
5042;SDS011;2540;50.928;6.856;2023-05-15T07:46:20;73.77;;;35.50;;
5042;SDS011;2540;50.928;6.856;2023-05-15T07:48:45;79.27;;;39.77;;
5042;SDS011;2540;50.928;6.856;2023-05-15T07:51:11;70.10;;;37.40;;
5042;SDS011;2540;50.928;6.856;2023-05-15T07:53:36;80.00;;;36.27;;
5042;SDS011;2540;50.928;6.856;2023-05-15T07:56:01;69.17;;;36.30;;
5042;SDS011;2540;50.928;6.856;2023-05-15T07:58:27;77.17;;;36.10;;
5042;SDS011;2540;50.928;6.856;2023-05-15T08:00:52;65.00;;;35.00;;
5042;SDS011;2540;50.928;6.856;2023-05-15T08:03:18;65.07;;;35.53;;
5042;SDS011;2540;50.928;6.856;2023-05-15T08:05:43;69.03;;;35.77;;
5042;SDS011;2540;50.928;6.856;2023-05-15T08:08:08;75.33;;;37.10;;
5042;SDS011;2540;50.928;6.856;2023-05-15T08:10:34;72.33;;;39.60;;
5042;SDS011;2540;50.928;6.856;2023-05-15T08:12:59;76.40;;;39.30;;
5042;SDS011;2540;50.928;6.856;2023-05-15T08:15:25;71.90;;;38.40;;
5042;SDS011;2540;50.928;6.856;2023-05-15T08:17:50;83.83;;;41.30;;
5042;SDS011;2540;50.928;6.856;2023-05-15T08:20:15;71.70;;;36.67;;
5042;SDS011;2540;50.928;6.856;2023-05-15T08:22:41;71.70;;;38.00;;
5042;SDS011;2540;50.928;6.856;2023-05-15T08:25:06;83.00;;;35.30;;
5042;SDS011;2540;50.928;6.856;2023-05-15T08:27:33;64.93;;;34.20;;
5042;SDS011;2540;50.928;6.856;2023-05-15T08:29:58;66.77;;;36.30;;
5042;SDS011;2540;50.928;6.856;2023-05-15T08:32:24;67.17;;;37.87;;
5042;SDS011;2540;50.928;6.856;2023-05-15T08:34:51;70.57;;;35.03;;
5042;SDS011;2540;50.928;6.856;2023-05-15T08:37:16;68.33;;;32.60;;
5042;SDS011;2540;50.928;6.856;2023-05-15T08:39:42;55.97;;;31.93;;
5042;SDS011;2540;50.928;6.856;2023-05-15T08:42:08;58.43;;;29.80;;
5042;SDS011;2540;50.928;6.856;2023-05-15T08:44:34;56.50;;;29.33;;
5042;SDS011;2540;50.928;6.856;2023-05-15T08:47:00;54.73;;;31.13;;
5042;SDS011;2540;50.928;6.856;2023-05-15T08:51:54;52.47;;;28.53;;
5042;SDS011;2540;50.928;6.856;2023-05-15T08:54:20;44.87;;;24.67;;
5042;SDS011;2540;50.928;6.856;2023-05-15T08:56:46;47.20;;;25.30;;
5042;SDS011;2540;50.928;6.856;2023-05-15T08:59:11;43.40;;;26.50;;
5042;SDS011;2540;50.928;6.856;2023-05-15T09:01:36;47.97;;;25.20;;
5042;SDS011;2540;50.928;6.856;2023-05-15T09:04:02;61.40;;;27.17;;
5042;SDS011;2540;50.928;6.856;2023-05-15T09:06:28;48.70;;;24.43;;
5042;SDS011;2540;50.928;6.856;2023-05-15T09:08:54;40.70;;;23.97;;
5042;SDS011;2540;50.928;6.856;2023-05-15T09:11:21;42.70;;;23.17;;
5042;SDS011;2540;50.928;6.856;2023-05-15T09:13:48;44.70;;;23.20;;
5042;SDS011;2540;50.928;6.856;2023-05-15T09:16:14;44.73;;;24.50;;
5042;SDS011;2540;50.928;6.856;2023-05-15T09:18:39;33.17;;;21.43;;
5042;SDS011;2540;50.928;6.856;2023-05-15T09:21:24;42.47;;;22.37;;
5042;SDS011;2540;50.928;6.856;2023-05-15T09:23:51;43.90;;;22.50;;
5042;SDS011;2540;50.928;6.856;2023-05-15T09:26:17;36.50;;;20.00;;
5042;SDS011;2540;50.928;6.856;2023-05-15T09:28:42;44.40;;;24.37;;
5042;SDS011;2540;50.928;6.856;2023-05-15T09:31:08;40.17;;;23.87;;
5042;SDS011;2540;50.928;6.856;2023-05-15T09:33:34;46.47;;;25.67;;
5042;SDS011;2540;50.928;6.856;2023-05-15T09:36:01;44.10;;;24.90;;
5042;SDS011;2540;50.928;6.856;2023-05-15T09:38:27;35.10;;;22.00;;
5042;SDS011;2540;50.928;6.856;2023-05-15T09:41:02;36.10;;;22.83;;
5042;SDS011;2540;50.928;6.856;2023-05-15T09:43:32;38.30;;;20.90;;
5042;SDS011;2540;50.928;6.856;2023-05-15T09:45:59;38.80;;;19.20;;
5042;SDS011;2540;50.928;6.856;2023-05-15T09:48:24;37.63;;;18.33;;
5042;SDS011;2540;50.928;6.856;2023-05-15T09:50:49;43.00;;;19.70;;
5042;SDS011;2540;50.928;6.856;2023-05-15T09:53:15;34.73;;;17.60;;
5042;SDS011;2540;50.928;6.856;2023-05-15T09:55:41;36.80;;;17.90;;
5042;SDS011;2540;50.928;6.856;2023-05-15T09:58:11;32.53;;;18.20;;
5042;SDS011;2540;50.928;6.856;2023-05-15T10:00:38;30.67;;;16.60;;
5042;SDS011;2540;50.928;6.856;2023-05-15T10:03:04;31.63;;;17.73;;
5042;SDS011;2540;50.928;6.856;2023-05-15T10:05:30;33.33;;;17.53;;
5042;SDS011;2540;50.928;6.856;2023-05-15T10:07:56;31.40;;;18.07;;
5042;SDS011;2540;50.928;6.856;2023-05-15T10:10:23;30.70;;;19.00;;
5042;SDS011;2540;50.928;6.856;2023-05-15T10:12:52;29.80;;;17.23;;
5042;SDS011;2540;50.928;6.856;2023-05-15T10:15:20;32.10;;;18.13;;
5042;SDS011;2540;50.928;6.856;2023-05-15T10:17:46;37.80;;;19.97;;
5042;SDS011;2540;50.928;6.856;2023-05-15T10:20:13;35.60;;;18.83;;
5042;SDS011;2540;50.928;6.856;2023-05-15T10:22:40;30.93;;;17.10;;
5042;SDS011;2540;50.928;6.856;2023-05-15T10:27:50;27.37;;;16.57;;
5042;SDS011;2540;50.928;6.856;2023-05-15T10:30:16;31.80;;;17.80;;
5042;SDS011;2540;50.928;6.856;2023-05-15T10:32:43;28.80;;;16.60;;
5042;SDS011;2540;50.928;6.856;2023-05-15T10:35:09;28.10;;;16.40;;
5042;SDS011;2540;50.928;6.856;2023-05-15T10:37:35;25.60;;;15.50;;
5042;SDS011;2540;50.928;6.856;2023-05-15T10:40:03;25.07;;;16.13;;
5042;SDS011;2540;50.928;6.856;2023-05-15T10:42:35;23.43;;;13.63;;
5042;SDS011;2540;50.928;6.856;2023-05-15T10:45:01;28.67;;;15.20;;
5042;SDS011;2540;50.928;6.856;2023-05-15T10:47:30;25.17;;;15.20;;
5042;SDS011;2540;50.928;6.856;2023-05-15T10:49:56;20.73;;;15.07;;
5042;SDS011;2540;50.928;6.856;2023-05-15T10:52:22;23.30;;;13.20;;
5042;SDS011;2540;50.928;6.856;2023-05-15T10:54:48;25.27;;;13.80;;
5042;SDS011;2540;50.928;6.856;2023-05-15T10:57:13;24.00;;;14.10;;
5042;SDS011;2540;50.928;6.856;2023-05-15T10:59:39;27.40;;;16.33;;
5042;SDS011;2540;50.928;6.856;2023-05-15T11:02:18;24.10;;;15.90;;
5042;SDS011;2540;50.928;6.856;2023-05-15T11:04:58;29.93;;;14.43;;
5042;SDS011;2540;50.928;6.856;2023-05-15T11:07:25;27.50;;;14.33;;
5042;SDS011;2540;50.928;6.856;2023-05-15T11:09:51;27.10;;;15.83;;
5042;SDS011;2540;50.928;6.856;2023-05-15T11:12:18;32.57;;;15.60;;
5042;SDS011;2540;50.928;6.856;2023-05-15T11:17:15;30.20;;;16.60;;
5042;SDS011;2540;50.928;6.856;2023-05-15T11:27:25;23.73;;;13.97;;
5042;SDS011;2540;50.928;6.856;2023-05-15T11:37:55;25.47;;;12.43;;
5042;SDS011;2540;50.928;6.856;2023-05-15T11:45:35;19.03;;;9.30;;
5042;SDS011;2540;50.928;6.856;2023-05-15T11:48:02;20.30;;;11.10;;
5042;SDS011;2540;50.928;6.856;2023-05-15T11:50:30;14.63;;;10.93;;
5042;SDS011;2540;50.928;6.856;2023-05-15T11:53:00;19.60;;;10.83;;
5042;SDS011;2540;50.928;6.856;2023-05-15T11:55:26;20.70;;;12.97;;
5042;SDS011;2540;50.928;6.856;2023-05-15T11:57:52;24.87;;;11.70;;
5042;SDS011;2540;50.928;6.856;2023-05-15T12:00:18;18.97;;;10.70;;
5042;SDS011;2540;50.928;6.856;2023-05-15T12:02:43;17.07;;;8.77;;
5042;SDS011;2540;50.928;6.856;2023-05-15T12:05:09;17.97;;;10.70;;
5042;SDS011;2540;50.928;6.856;2023-05-15T12:07:36;20.60;;;11.13;;
5042;SDS011;2540;50.928;6.856;2023-05-15T12:10:02;23.53;;;14.20;;
5042;SDS011;2540;50.928;6.856;2023-05-15T12:12:28;19.00;;;13.70;;
5042;SDS011;2540;50.928;6.856;2023-05-15T12:14:56;29.70;;;15.40;;
5042;SDS011;2540;50.928;6.856;2023-05-15T12:17:23;24.23;;;13.20;;
5042;SDS011;2540;50.928;6.856;2023-05-15T12:19:48;22.23;;;13.00;;
5042;SDS011;2540;50.928;6.856;2023-05-15T12:22:14;30.57;;;13.37;;
5042;SDS011;2540;50.928;6.856;2023-05-15T12:24:40;17.43;;;11.27;;
5042;SDS011;2540;50.928;6.856;2023-05-15T12:27:06;32.40;;;10.67;;
5042;SDS011;2540;50.928;6.856;2023-05-15T12:29:32;18.37;;;11.10;;
5042;SDS011;2540;50.928;6.856;2023-05-15T12:31:58;14.40;;;11.23;;
5042;SDS011;2540;50.928;6.856;2023-05-15T12:34:23;20.93;;;13.13;;
5042;SDS011;2540;50.928;6.856;2023-05-15T12:36:49;18.47;;;11.00;;
5042;SDS011;2540;50.928;6.856;2023-05-15T12:39:14;14.90;;;9.60;;
5042;SDS011;2540;50.928;6.856;2023-05-15T12:41:39;16.70;;;11.53;;
5042;SDS011;2540;50.928;6.856;2023-05-15T12:44:05;18.47;;;10.37;;
5042;SDS011;2540;50.928;6.856;2023-05-15T12:46:31;17.33;;;10.97;;
5042;SDS011;2540;50.928;6.856;2023-05-15T12:48:59;14.40;;;10.30;;
5042;SDS011;2540;50.928;6.856;2023-05-15T12:51:25;17.37;;;9.90;;
5042;SDS011;2540;50.928;6.856;2023-05-15T12:53:54;14.40;;;10.63;;
5042;SDS011;2540;50.928;6.856;2023-05-15T12:56:22;15.27;;;9.73;;
5042;SDS011;2540;50.928;6.856;2023-05-15T12:58:47;17.10;;;10.03;;
5042;SDS011;2540;50.928;6.856;2023-05-15T13:01:13;16.33;;;10.37;;
5042;SDS011;2540;50.928;6.856;2023-05-15T13:03:41;14.17;;;9.63;;
5042;SDS011;2540;50.928;6.856;2023-05-15T13:06:08;19.70;;;11.90;;
5042;SDS011;2540;50.928;6.856;2023-05-15T13:08:37;18.80;;;11.40;;
5042;SDS011;2540;50.928;6.856;2023-05-15T13:11:04;16.90;;;9.70;;
5042;SDS011;2540;50.928;6.856;2023-05-15T13:16:24;17.13;;;9.60;;
5042;SDS011;2540;50.928;6.856;2023-05-15T13:18:53;11.60;;;7.97;;
5042;SDS011;2540;50.928;6.856;2023-05-15T13:21:20;13.67;;;8.13;;
5042;SDS011;2540;50.928;6.856;2023-05-15T13:23:45;14.47;;;8.40;;
5042;SDS011;2540;50.928;6.856;2023-05-15T13:26:10;13.40;;;8.40;;
5042;SDS011;2540;50.928;6.856;2023-05-15T13:28:36;9.57;;;7.30;;
5042;SDS011;2540;50.928;6.856;2023-05-15T13:31:01;13.47;;;9.40;;
5042;SDS011;2540;50.928;6.856;2023-05-15T13:33:27;15.30;;;9.23;;
5042;SDS011;2540;50.928;6.856;2023-05-15T13:35:53;15.73;;;8.93;;
5042;SDS011;2540;50.928;6.856;2023-05-15T13:38:18;12.97;;;9.30;;
5042;SDS011;2540;50.928;6.856;2023-05-15T13:40:43;13.67;;;9.57;;
5042;SDS011;2540;50.928;6.856;2023-05-15T13:43:09;15.27;;;9.60;;
5042;SDS011;2540;50.928;6.856;2023-05-15T13:45:34;14.57;;;8.90;;
5042;SDS011;2540;50.928;6.856;2023-05-15T13:48:00;23.40;;;9.10;;
5042;SDS011;2540;50.928;6.856;2023-05-15T13:50:26;13.20;;;8.57;;
5042;SDS011;2540;50.928;6.856;2023-05-15T13:52:51;16.77;;;10.00;;
5042;SDS011;2540;50.928;6.856;2023-05-15T13:55:18;11.67;;;9.10;;
5042;SDS011;2540;50.928;6.856;2023-05-15T13:57:43;13.20;;;8.97;;
5042;SDS011;2540;50.928;6.856;2023-05-15T14:00:09;13.53;;;9.40;;
5042;SDS011;2540;50.928;6.856;2023-05-15T14:02:37;23.97;;;10.53;;
5042;SDS011;2540;50.928;6.856;2023-05-15T14:05:03;20.83;;;10.67;;
5042;SDS011;2540;50.928;6.856;2023-05-15T14:07:29;13.87;;;8.73;;
5042;SDS011;2540;50.928;6.856;2023-05-15T14:09:54;14.03;;;9.03;;
5042;SDS011;2540;50.928;6.856;2023-05-15T14:12:20;20.70;;;10.50;;
5042;SDS011;2540;50.928;6.856;2023-05-15T14:14:46;18.70;;;11.10;;
5042;SDS011;2540;50.928;6.856;2023-05-15T14:17:11;21.23;;;11.03;;
5042;SDS011;2540;50.928;6.856;2023-05-15T14:19:37;18.50;;;12.30;;
5042;SDS011;2540;50.928;6.856;2023-05-15T14:22:03;20.60;;;13.90;;
5042;SDS011;2540;50.928;6.856;2023-05-15T14:24:28;28.63;;;18.40;;
5042;SDS011;2540;50.928;6.856;2023-05-15T14:26:54;40.33;;;17.23;;
5042;SDS011;2540;50.928;6.856;2023-05-15T14:29:19;24.77;;;16.27;;
5042;SDS011;2540;50.928;6.856;2023-05-15T14:31:45;27.70;;;16.37;;
5042;SDS011;2540;50.928;6.856;2023-05-15T14:34:10;34.87;;;18.20;;
5042;SDS011;2540;50.928;6.856;2023-05-15T14:36:35;32.43;;;17.63;;
5042;SDS011;2540;50.928;6.856;2023-05-15T14:39:01;28.47;;;18.30;;
5042;SDS011;2540;50.928;6.856;2023-05-15T14:41:26;29.87;;;17.63;;
5042;SDS011;2540;50.928;6.856;2023-05-15T14:43:52;27.50;;;14.87;;
5042;SDS011;2540;50.928;6.856;2023-05-15T14:46:17;26.47;;;16.17;;
5042;SDS011;2540;50.928;6.856;2023-05-15T14:48:43;29.03;;;14.63;;
5042;SDS011;2540;50.928;6.856;2023-05-15T14:51:08;21.37;;;12.73;;
5042;SDS011;2540;50.928;6.856;2023-05-15T14:53:34;24.50;;;15.40;;
5042;SDS011;2540;50.928;6.856;2023-05-15T14:55:59;24.00;;;15.83;;
5042;SDS011;2540;50.928;6.856;2023-05-15T14:58:25;28.57;;;14.50;;
5042;SDS011;2540;50.928;6.856;2023-05-15T15:00:51;28.13;;;13.40;;
5042;SDS011;2540;50.928;6.856;2023-05-15T15:03:16;21.80;;;12.20;;
5042;SDS011;2540;50.928;6.856;2023-05-15T15:05:43;18.73;;;11.80;;
5042;SDS011;2540;50.928;6.856;2023-05-15T15:08:09;23.80;;;13.70;;
5042;SDS011;2540;50.928;6.856;2023-05-15T15:10:35;35.00;;;13.97;;
5042;SDS011;2540;50.928;6.856;2023-05-15T15:13:01;22.20;;;14.17;;
5042;SDS011;2540;50.928;6.856;2023-05-15T15:15:27;22.50;;;14.00;;
5042;SDS011;2540;50.928;6.856;2023-05-15T15:17:54;27.80;;;14.20;;
5042;SDS011;2540;50.928;6.856;2023-05-15T15:20:21;26.60;;;12.83;;
5042;SDS011;2540;50.928;6.856;2023-05-15T15:22:47;22.47;;;14.20;;
5042;SDS011;2540;50.928;6.856;2023-05-15T15:25:12;21.70;;;13.33;;
5042;SDS011;2540;50.928;6.856;2023-05-15T15:27:38;20.57;;;13.90;;
5042;SDS011;2540;50.928;6.856;2023-05-15T15:30:05;20.00;;;13.00;;
5042;SDS011;2540;50.928;6.856;2023-05-15T15:32:32;25.63;;;11.50;;
5042;SDS011;2540;50.928;6.856;2023-05-15T15:34:58;20.47;;;12.80;;
5042;SDS011;2540;50.928;6.856;2023-05-15T15:37:23;22.17;;;12.53;;